sensor_id;sensor_type;location;lat;lon;timestamp;P1;durP1;ratioP1;P2;durP2;ratioP2
28766;SDS011;15921;52.034;20.650;2023-03-01T00:01:17;125.70;;;47.80;;
28766;SDS011;15921;52.034;20.650;2023-03-01T00:03:44;137.95;;;49.80;;
28766;SDS011;15921;52.034;20.650;2023-03-01T00:06:10;133.52;;;49.08;;
28766;SDS011;15921;52.034;20.650;2023-03-01T00:08:36;122.63;;;45.72;;
28766;SDS011;15921;52.034;20.650;2023-03-01T00:11:10;126.70;;;44.92;;
28766;SDS011;15921;52.034;20.650;2023-03-01T00:13:42;131.95;;;44.75;;
28766;SDS011;15921;52.034;20.650;2023-03-01T00:16:11;113.55;;;40.72;;
28766;SDS011;15921;52.034;20.650;2023-03-01T00:18:39;110.40;;;40.65;;
28766;SDS011;15921;52.034;20.650;2023-03-01T00:21:05;101.35;;;36.25;;
28766;SDS011;15921;52.034;20.650;2023-03-01T00:23:31;102.45;;;38.60;;
28766;SDS011;15921;52.034;20.650;2023-03-01T00:25:58;102.50;;;40.42;;
28766;SDS011;15921;52.034;20.650;2023-03-01T00:28:24;107.47;;;39.58;;
28766;SDS011;15921;52.034;20.650;2023-03-01T00:30:50;112.60;;;39.50;;
28766;SDS011;15921;52.034;20.650;2023-03-01T00:33:15;111.28;;;40.92;;
28766;SDS011;15921;52.034;20.650;2023-03-01T00:35:41;111.25;;;40.38;;
28766;SDS011;15921;52.034;20.650;2023-03-01T00:38:07;98.15;;;38.10;;
28766;SDS011;15921;52.034;20.650;2023-03-01T00:40:33;110.53;;;42.13;;
28766;SDS011;15921;52.034;20.650;2023-03-01T00:43:00;107.60;;;40.75;;
28766;SDS011;15921;52.034;20.650;2023-03-01T00:45:26;118.03;;;42.67;;
28766;SDS011;15921;52.034;20.650;2023-03-01T00:47:52;93.18;;;35.30;;
28766;SDS011;15921;52.034;20.650;2023-03-01T00:50:18;110.75;;;40.08;;
28766;SDS011;15921;52.034;20.650;2023-03-01T00:52:44;109.80;;;41.08;;
28766;SDS011;15921;52.034;20.650;2023-03-01T00:55:10;98.80;;;39.33;;
28766;SDS011;15921;52.034;20.650;2023-03-01T00:57:36;104.85;;;38.58;;
28766;SDS011;15921;52.034;20.650;2023-03-01T01:00:03;97.82;;;37.85;;
28766;SDS011;15921;52.034;20.650;2023-03-01T01:02:34;97.40;;;36.03;;
28766;SDS011;15921;52.034;20.650;2023-03-01T01:05:00;104.45;;;37.92;;
28766;SDS011;15921;52.034;20.650;2023-03-01T01:07:26;101.15;;;38.28;;
28766;SDS011;15921;52.034;20.650;2023-03-01T01:09:52;95.07;;;36.00;;
28766;SDS011;15921;52.034;20.650;2023-03-01T01:12:17;107.13;;;35.35;;
28766;SDS011;15921;52.034;20.650;2023-03-01T01:14:43;108.00;;;39.28;;
28766;SDS011;15921;52.034;20.650;2023-03-01T01:17:09;105.25;;;38.90;;
28766;SDS011;15921;52.034;20.650;2023-03-01T01:19:34;102.75;;;39.20;;
28766;SDS011;15921;52.034;20.650;2023-03-01T01:22:00;104.28;;;37.72;;
28766;SDS011;15921;52.034;20.650;2023-03-01T01:24:26;105.95;;;38.88;;
28766;SDS011;15921;52.034;20.650;2023-03-01T01:26:52;108.28;;;38.92;;
28766;SDS011;15921;52.034;20.650;2023-03-01T01:29:17;110.50;;;39.28;;
28766;SDS011;15921;52.034;20.650;2023-03-01T01:31:43;108.80;;;37.85;;
28766;SDS011;15921;52.034;20.650;2023-03-01T01:34:12;105.00;;;37.45;;
28766;SDS011;15921;52.034;20.650;2023-03-01T01:36:44;101.88;;;37.50;;
28766;SDS011;15921;52.034;20.650;2023-03-01T01:39:13;96.38;;;35.05;;
28766;SDS011;15921;52.034;20.650;2023-03-01T01:41:40;95.55;;;36.97;;
28766;SDS011;15921;52.034;20.650;2023-03-01T01:46:50;103.68;;;38.00;;
28766;SDS011;15921;52.034;20.650;2023-03-01T01:50:03;96.88;;;36.38;;
28766;SDS011;15921;52.034;20.650;2023-03-01T01:52:23;99.22;;;36.30;;
28766;SDS011;15921;52.034;20.650;2023-03-01T01:57:33;103.68;;;35.55;;
28766;SDS011;15921;52.034;20.650;2023-03-01T02:00:12;89.30;;;35.67;;
28766;SDS011;15921;52.034;20.650;2023-03-01T02:02:43;92.65;;;33.65;;
28766;SDS011;15921;52.034;20.650;2023-03-01T02:05:14;99.82;;;34.78;;
28766;SDS011;15921;52.034;20.650;2023-03-01T02:07:44;99.30;;;34.00;;
28766;SDS011;15921;52.034;20.650;2023-03-01T02:10:12;97.05;;;34.30;;
28766;SDS011;15921;52.034;20.650;2023-03-01T02:12:37;89.28;;;34.25;;
28766;SDS011;15921;52.034;20.650;2023-03-01T02:15:04;94.10;;;35.88;;
28766;SDS011;15921;52.034;20.650;2023-03-01T02:17:31;101.45;;;36.38;;
28766;SDS011;15921;52.034;20.650;2023-03-01T02:23:07;90.03;;;35.38;;
28766;SDS011;15921;52.034;20.650;2023-03-01T02:28:24;84.22;;;32.63;;
28766;SDS011;15921;52.034;20.650;2023-03-01T02:30:51;99.50;;;35.03;;
28766;SDS011;15921;52.034;20.650;2023-03-01T02:33:37;93.57;;;34.88;;
28766;SDS011;15921;52.034;20.650;2023-03-01T02:36:06;94.00;;;34.40;;
28766;SDS011;15921;52.034;20.650;2023-03-01T02:38:38;79.85;;;31.70;;
28766;SDS011;15921;52.034;20.650;2023-03-01T02:41:05;92.18;;;32.60;;
28766;SDS011;15921;52.034;20.650;2023-03-01T02:43:32;84.75;;;32.75;;
28766;SDS011;15921;52.034;20.650;2023-03-01T02:45:59;88.65;;;33.70;;
28766;SDS011;15921;52.034;20.650;2023-03-01T02:48:40;82.97;;;31.85;;
28766;SDS011;15921;52.034;20.650;2023-03-01T02:51:10;96.70;;;34.03;;
28766;SDS011;15921;52.034;20.650;2023-03-01T02:54:02;90.03;;;32.95;;
28766;SDS011;15921;52.034;20.650;2023-03-01T02:56:41;95.10;;;34.63;;
28766;SDS011;15921;52.034;20.650;2023-03-01T02:59:09;89.13;;;35.20;;
28766;SDS011;15921;52.034;20.650;2023-03-01T03:01:35;93.53;;;34.28;;
28766;SDS011;15921;52.034;20.650;2023-03-01T03:04:05;89.78;;;34.75;;
28766;SDS011;15921;52.034;20.650;2023-03-01T03:06:32;96.57;;;34.30;;
28766;SDS011;15921;52.034;20.650;2023-03-01T03:08:58;90.53;;;32.83;;
28766;SDS011;15921;52.034;20.650;2023-03-01T03:11:24;96.53;;;34.22;;
28766;SDS011;15921;52.034;20.650;2023-03-01T03:13:50;89.57;;;33.88;;
28766;SDS011;15921;52.034;20.650;2023-03-01T03:16:17;87.28;;;32.28;;
28766;SDS011;15921;52.034;20.650;2023-03-01T03:18:43;83.00;;;33.28;;
28766;SDS011;15921;52.034;20.650;2023-03-01T03:21:09;95.47;;;33.42;;
28766;SDS011;15921;52.034;20.650;2023-03-01T03:23:36;85.72;;;31.83;;
28766;SDS011;15921;52.034;20.650;2023-03-01T03:26:03;78.35;;;31.35;;
28766;SDS011;15921;52.034;20.650;2023-03-01T03:28:32;93.20;;;33.53;;
28766;SDS011;15921;52.034;20.650;2023-03-01T03:30:59;92.75;;;32.97;;
28766;SDS011;15921;52.034;20.650;2023-03-01T03:33:32;91.80;;;30.63;;
28766;SDS011;15921;52.034;20.650;2023-03-01T03:35:58;89.55;;;32.42;;
28766;SDS011;15921;52.034;20.650;2023-03-01T03:38:24;87.05;;;33.45;;
28766;SDS011;15921;52.034;20.650;2023-03-01T03:40:51;83.93;;;30.95;;
28766;SDS011;15921;52.034;20.650;2023-03-01T03:43:26;88.30;;;34.70;;
28766;SDS011;15921;52.034;20.650;2023-03-01T03:45:51;84.85;;;31.98;;
28766;SDS011;15921;52.034;20.650;2023-03-01T03:48:19;86.10;;;32.05;;
28766;SDS011;15921;52.034;20.650;2023-03-01T03:50:52;85.85;;;31.90;;
28766;SDS011;15921;52.034;20.650;2023-03-01T03:53:19;88.95;;;31.83;;
28766;SDS011;15921;52.034;20.650;2023-03-01T03:55:46;78.70;;;30.63;;
28766;SDS011;15921;52.034;20.650;2023-03-01T03:58:14;83.32;;;31.50;;
28766;SDS011;15921;52.034;20.650;2023-03-01T04:00:42;82.38;;;30.75;;
28766;SDS011;15921;52.034;20.650;2023-03-01T04:03:10;93.13;;;32.38;;
28766;SDS011;15921;52.034;20.650;2023-03-01T04:05:38;91.32;;;31.85;;
28766;SDS011;15921;52.034;20.650;2023-03-01T04:08:05;90.53;;;31.02;;
28766;SDS011;15921;52.034;20.650;2023-03-01T04:10:35;79.40;;;29.88;;
28766;SDS011;15921;52.034;20.650;2023-03-01T04:13:03;76.80;;;29.85;;
28766;SDS011;15921;52.034;20.650;2023-03-01T04:15:30;68.60;;;28.25;;
28766;SDS011;15921;52.034;20.650;2023-03-01T04:17:57;74.97;;;28.52;;
28766;SDS011;15921;52.034;20.650;2023-03-01T04:20:25;72.78;;;26.25;;
28766;SDS011;15921;52.034;20.650;2023-03-01T04:22:56;73.28;;;28.55;;
28766;SDS011;15921;52.034;20.650;2023-03-01T04:25:24;72.70;;;27.45;;
28766;SDS011;15921;52.034;20.650;2023-03-01T04:27:50;73.43;;;28.80;;
28766;SDS011;15921;52.034;20.650;2023-03-01T04:30:16;77.07;;;28.95;;
28766;SDS011;15921;52.034;20.650;2023-03-01T04:32:41;88.35;;;30.50;;
28766;SDS011;15921;52.034;20.650;2023-03-01T04:35:07;72.47;;;28.42;;
28766;SDS011;15921;52.034;20.650;2023-03-01T04:37:33;74.85;;;28.55;;
28766;SDS011;15921;52.034;20.650;2023-03-01T04:40:00;70.85;;;26.80;;
28766;SDS011;15921;52.034;20.650;2023-03-01T04:42:32;68.45;;;25.58;;
28766;SDS011;15921;52.034;20.650;2023-03-01T04:44:58;63.00;;;25.42;;
28766;SDS011;15921;52.034;20.650;2023-03-01T04:47:24;69.82;;;26.70;;
28766;SDS011;15921;52.034;20.650;2023-03-01T04:49:49;74.97;;;27.02;;
28766;SDS011;15921;52.034;20.650;2023-03-01T04:52:15;73.20;;;26.55;;
28766;SDS011;15921;52.034;20.650;2023-03-01T04:54:41;69.60;;;26.85;;
28766;SDS011;15921;52.034;20.650;2023-03-01T04:57:08;73.28;;;27.70;;
28766;SDS011;15921;52.034;20.650;2023-03-01T04:59:33;67.85;;;26.27;;
28766;SDS011;15921;52.034;20.650;2023-03-01T05:02:01;70.68;;;27.00;;
28766;SDS011;15921;52.034;20.650;2023-03-01T05:04:26;70.05;;;28.25;;
28766;SDS011;15921;52.034;20.650;2023-03-01T05:06:53;65.38;;;25.75;;
28766;SDS011;15921;52.034;20.650;2023-03-01T05:09:18;76.65;;;28.75;;
28766;SDS011;15921;52.034;20.650;2023-03-01T05:11:44;73.30;;;27.40;;
28766;SDS011;15921;52.034;20.650;2023-03-01T05:14:10;71.00;;;27.20;;
28766;SDS011;15921;52.034;20.650;2023-03-01T05:16:36;66.32;;;27.25;;
28766;SDS011;15921;52.034;20.650;2023-03-01T05:19:02;65.80;;;26.95;;
28766;SDS011;15921;52.034;20.650;2023-03-01T05:21:40;75.05;;;27.08;;
28766;SDS011;15921;52.034;20.650;2023-03-01T05:24:25;69.20;;;27.10;;
28766;SDS011;15921;52.034;20.650;2023-03-01T05:26:51;67.40;;;26.38;;
28766;SDS011;15921;52.034;20.650;2023-03-01T05:29:20;66.43;;;25.42;;
28766;SDS011;15921;52.034;20.650;2023-03-01T05:34:22;66.00;;;25.27;;
28766;SDS011;15921;52.034;20.650;2023-03-01T05:36:53;70.10;;;26.83;;
28766;SDS011;15921;52.034;20.650;2023-03-01T05:39:23;67.50;;;26.17;;
28766;SDS011;15921;52.034;20.650;2023-03-01T05:41:54;72.10;;;26.03;;
28766;SDS011;15921;52.034;20.650;2023-03-01T05:44:21;59.85;;;25.73;;
28766;SDS011;15921;52.034;20.650;2023-03-01T05:46:47;61.78;;;24.20;;
28766;SDS011;15921;52.034;20.650;2023-03-01T05:49:13;60.50;;;25.17;;
28766;SDS011;15921;52.034;20.650;2023-03-01T05:51:40;64.63;;;24.02;;
28766;SDS011;15921;52.034;20.650;2023-03-01T05:54:06;67.53;;;25.80;;
28766;SDS011;15921;52.034;20.650;2023-03-01T05:56:33;63.75;;;25.23;;
28766;SDS011;15921;52.034;20.650;2023-03-01T05:58:59;61.50;;;25.42;;
28766;SDS011;15921;52.034;20.650;2023-03-01T06:01:26;62.85;;;25.00;;
28766;SDS011;15921;52.034;20.650;2023-03-01T06:03:52;71.32;;;26.90;;
28766;SDS011;15921;52.034;20.650;2023-03-01T06:06:17;64.60;;;25.35;;
28766;SDS011;15921;52.034;20.650;2023-03-01T06:08:43;69.05;;;25.48;;
28766;SDS011;15921;52.034;20.650;2023-03-01T06:11:09;67.88;;;25.83;;
28766;SDS011;15921;52.034;20.650;2023-03-01T06:13:35;65.75;;;25.52;;
28766;SDS011;15921;52.034;20.650;2023-03-01T06:16:03;63.97;;;26.33;;
28766;SDS011;15921;52.034;20.650;2023-03-01T06:18:30;63.42;;;25.60;;
28766;SDS011;15921;52.034;20.650;2023-03-01T06:20:56;70.63;;;28.15;;
28766;SDS011;15921;52.034;20.650;2023-03-01T06:23:22;69.80;;;26.80;;
28766;SDS011;15921;52.034;20.650;2023-03-01T06:25:49;59.35;;;25.23;;
28766;SDS011;15921;52.034;20.650;2023-03-01T06:28:15;59.45;;;24.75;;
28766;SDS011;15921;52.034;20.650;2023-03-01T06:30:40;60.25;;;25.77;;
28766;SDS011;15921;52.034;20.650;2023-03-01T06:33:06;58.63;;;26.27;;
28766;SDS011;15921;52.034;20.650;2023-03-01T06:35:32;64.32;;;26.92;;
28766;SDS011;15921;52.034;20.650;2023-03-01T06:37:58;61.70;;;25.73;;
28766;SDS011;15921;52.034;20.650;2023-03-01T06:40:25;59.83;;;25.90;;
28766;SDS011;15921;52.034;20.650;2023-03-01T06:42:51;70.75;;;28.40;;
28766;SDS011;15921;52.034;20.650;2023-03-01T06:45:17;66.22;;;27.30;;
28766;SDS011;15921;52.034;20.650;2023-03-01T06:47:45;63.58;;;28.08;;
28766;SDS011;15921;52.034;20.650;2023-03-01T06:50:11;73.07;;;28.23;;
28766;SDS011;15921;52.034;20.650;2023-03-01T06:52:37;66.35;;;27.67;;
28766;SDS011;15921;52.034;20.650;2023-03-01T06:55:03;63.75;;;26.48;;
28766;SDS011;15921;52.034;20.650;2023-03-01T06:57:30;66.65;;;27.25;;
28766;SDS011;15921;52.034;20.650;2023-03-01T06:59:55;65.65;;;26.80;;
28766;SDS011;15921;52.034;20.650;2023-03-01T07:02:21;69.05;;;28.02;;
28766;SDS011;15921;52.034;20.650;2023-03-01T07:04:48;66.18;;;27.25;;
28766;SDS011;15921;52.034;20.650;2023-03-01T07:07:15;64.93;;;26.98;;
28766;SDS011;15921;52.034;20.650;2023-03-01T07:09:41;65.47;;;26.58;;
28766;SDS011;15921;52.034;20.650;2023-03-01T07:12:06;63.72;;;26.02;;
28766;SDS011;15921;52.034;20.650;2023-03-01T07:14:33;69.07;;;27.50;;
28766;SDS011;15921;52.034;20.650;2023-03-01T07:16:58;61.72;;;26.50;;
28766;SDS011;15921;52.034;20.650;2023-03-01T07:19:24;63.83;;;25.70;;
28766;SDS011;15921;52.034;20.650;2023-03-01T07:21:50;70.68;;;25.83;;
28766;SDS011;15921;52.034;20.650;2023-03-01T07:24:15;55.75;;;24.73;;
28766;SDS011;15921;52.034;20.650;2023-03-01T07:26:41;66.20;;;26.90;;
28766;SDS011;15921;52.034;20.650;2023-03-01T07:29:07;62.40;;;25.15;;
28766;SDS011;15921;52.034;20.650;2023-03-01T07:31:34;61.88;;;25.52;;
28766;SDS011;15921;52.034;20.650;2023-03-01T07:34:01;59.85;;;25.30;;
28766;SDS011;15921;52.034;20.650;2023-03-01T07:36:28;66.25;;;27.23;;
28766;SDS011;15921;52.034;20.650;2023-03-01T07:38:54;63.53;;;25.75;;
28766;SDS011;15921;52.034;20.650;2023-03-01T07:41:20;60.05;;;24.83;;
28766;SDS011;15921;52.034;20.650;2023-03-01T07:43:46;59.08;;;26.73;;
28766;SDS011;15921;52.034;20.650;2023-03-01T07:46:12;63.70;;;25.60;;
28766;SDS011;15921;52.034;20.650;2023-03-01T07:48:38;59.30;;;25.42;;
28766;SDS011;15921;52.034;20.650;2023-03-01T07:51:04;64.65;;;25.17;;
28766;SDS011;15921;52.034;20.650;2023-03-01T07:53:31;62.17;;;25.42;;
28766;SDS011;15921;52.034;20.650;2023-03-01T07:56:06;61.88;;;24.92;;
28766;SDS011;15921;52.034;20.650;2023-03-01T07:58:34;53.78;;;24.52;;
28766;SDS011;15921;52.034;20.650;2023-03-01T08:01:01;55.30;;;23.85;;
28766;SDS011;15921;52.034;20.650;2023-03-01T08:03:28;61.85;;;24.40;;
28766;SDS011;15921;52.034;20.650;2023-03-01T08:05:54;60.53;;;25.17;;
28766;SDS011;15921;52.034;20.650;2023-03-01T08:08:19;57.08;;;23.52;;
28766;SDS011;15921;52.034;20.650;2023-03-01T08:10:45;56.28;;;22.63;;
28766;SDS011;15921;52.034;20.650;2023-03-01T08:13:11;57.85;;;23.45;;
28766;SDS011;15921;52.034;20.650;2023-03-01T08:15:36;51.67;;;22.00;;
28766;SDS011;15921;52.034;20.650;2023-03-01T08:18:02;49.63;;;22.02;;
28766;SDS011;15921;52.034;20.650;2023-03-01T08:20:28;52.80;;;21.95;;
28766;SDS011;15921;52.034;20.650;2023-03-01T08:22:53;51.80;;;21.05;;
28766;SDS011;15921;52.034;20.650;2023-03-01T08:25:19;47.28;;;20.98;;
28766;SDS011;15921;52.034;20.650;2023-03-01T08:27:45;56.92;;;18.65;;
28766;SDS011;15921;52.034;20.650;2023-03-01T08:30:10;49.90;;;20.27;;
28766;SDS011;15921;52.034;20.650;2023-03-01T08:32:37;48.85;;;20.20;;
28766;SDS011;15921;52.034;20.650;2023-03-01T08:35:04;51.13;;;20.08;;
28766;SDS011;15921;52.034;20.650;2023-03-01T08:37:30;43.13;;;18.63;;
28766;SDS011;15921;52.034;20.650;2023-03-01T08:39:58;40.63;;;18.70;;
28766;SDS011;15921;52.034;20.650;2023-03-01T08:42:25;39.72;;;17.27;;
28766;SDS011;15921;52.034;20.650;2023-03-01T08:44:51;42.53;;;16.88;;
28766;SDS011;15921;52.034;20.650;2023-03-01T08:47:16;38.33;;;15.30;;
28766;SDS011;15921;52.034;20.650;2023-03-01T08:49:42;39.67;;;17.33;;
28766;SDS011;15921;52.034;20.650;2023-03-01T08:52:08;38.00;;;16.48;;
28766;SDS011;15921;52.034;20.650;2023-03-01T08:54:33;37.97;;;17.48;;
28766;SDS011;15921;52.034;20.650;2023-03-01T08:57:01;36.65;;;16.83;;
28766;SDS011;15921;52.034;20.650;2023-03-01T08:59:27;40.30;;;17.05;;
28766;SDS011;15921;52.034;20.650;2023-03-01T09:01:54;30.38;;;15.77;;
28766;SDS011;15921;52.034;20.650;2023-03-01T09:04:20;35.67;;;17.45;;
28766;SDS011;15921;52.034;20.650;2023-03-01T09:06:46;35.90;;;17.58;;
28766;SDS011;15921;52.034;20.650;2023-03-01T09:09:16;32.50;;;14.43;;
28766;SDS011;15921;52.034;20.650;2023-03-01T09:11:43;23.98;;;12.07;;
28766;SDS011;15921;52.034;20.650;2023-03-01T09:14:11;28.63;;;13.13;;
28766;SDS011;15921;52.034;20.650;2023-03-01T09:16:37;31.00;;;13.55;;
28766;SDS011;15921;52.034;20.650;2023-03-01T09:19:03;27.48;;;13.52;;
28766;SDS011;15921;52.034;20.650;2023-03-01T09:21:29;26.50;;;12.32;;
28766;SDS011;15921;52.034;20.650;2023-03-01T09:23:55;30.60;;;12.50;;
28766;SDS011;15921;52.034;20.650;2023-03-01T09:26:22;25.00;;;12.05;;
28766;SDS011;15921;52.034;20.650;2023-03-01T09:28:49;25.50;;;11.27;;
28766;SDS011;15921;52.034;20.650;2023-03-01T09:31:16;24.38;;;9.18;;
28766;SDS011;15921;52.034;20.650;2023-03-01T09:33:45;22.33;;;9.43;;
28766;SDS011;15921;52.034;20.650;2023-03-01T09:36:14;23.92;;;10.80;;
28766;SDS011;15921;52.034;20.650;2023-03-01T09:38:41;22.92;;;10.15;;
28766;SDS011;15921;52.034;20.650;2023-03-01T09:44:03;25.58;;;11.27;;
28766;SDS011;15921;52.034;20.650;2023-03-01T09:46:31;26.55;;;11.27;;
28766;SDS011;15921;52.034;20.650;2023-03-01T09:49:08;24.67;;;11.02;;
28766;SDS011;15921;52.034;20.650;2023-03-01T09:51:53;29.25;;;11.70;;
28766;SDS011;15921;52.034;20.650;2023-03-01T09:54:21;30.52;;;13.40;;
28766;SDS011;15921;52.034;20.650;2023-03-01T09:56:53;32.35;;;13.25;;
28766;SDS011;15921;52.034;20.650;2023-03-01T10:10:28;29.00;;;12.93;;
28766;SDS011;15921;52.034;20.650;2023-03-01T10:13:00;27.85;;;13.18;;
28766;SDS011;15921;52.034;20.650;2023-03-01T10:15:40;33.05;;;14.68;;
28766;SDS011;15921;52.034;20.650;2023-03-01T10:18:18;30.23;;;14.73;;
28766;SDS011;15921;52.034;20.650;2023-03-01T10:21:01;31.52;;;14.30;;
28766;SDS011;15921;52.034;20.650;2023-03-01T10:23:35;31.88;;;14.55;;
28766;SDS011;15921;52.034;20.650;2023-03-01T10:28:59;28.90;;;13.35;;
28766;SDS011;15921;52.034;20.650;2023-03-01T10:31:46;33.17;;;14.02;;
28766;SDS011;15921;52.034;20.650;2023-03-01T10:36:43;33.67;;;15.20;;
28766;SDS011;15921;52.034;20.650;2023-03-01T10:39:19;31.08;;;14.70;;
28766;SDS011;15921;52.034;20.650;2023-03-01T10:42:00;32.33;;;14.90;;
28766;SDS011;15921;52.034;20.650;2023-03-01T10:44:44;30.00;;;13.45;;
28766;SDS011;15921;52.034;20.650;2023-03-01T10:47:24;33.83;;;14.27;;
28766;SDS011;15921;52.034;20.650;2023-03-01T10:49:52;32.03;;;13.20;;
28766;SDS011;15921;52.034;20.650;2023-03-01T10:52:20;32.38;;;16.33;;
28766;SDS011;15921;52.034;20.650;2023-03-01T10:54:53;33.35;;;14.32;;
28766;SDS011;15921;52.034;20.650;2023-03-01T10:57:36;26.35;;;12.57;;
28766;SDS011;15921;52.034;20.650;2023-03-01T11:00:21;34.20;;;14.60;;
28766;SDS011;15921;52.034;20.650;2023-03-01T11:03:12;32.55;;;13.85;;
28766;SDS011;15921;52.034;20.650;2023-03-01T11:05:49;32.78;;;13.38;;
28766;SDS011;15921;52.034;20.650;2023-03-01T11:08:28;32.10;;;14.38;;
28766;SDS011;15921;52.034;20.650;2023-03-01T11:11:47;28.02;;;11.18;;
28766;SDS011;15921;52.034;20.650;2023-03-01T11:16:41;26.08;;;12.38;;
28766;SDS011;15921;52.034;20.650;2023-03-01T11:21:36;29.63;;;13.48;;
28766;SDS011;15921;52.034;20.650;2023-03-01T11:24:09;24.63;;;11.15;;
28766;SDS011;15921;52.034;20.650;2023-03-01T11:26:39;26.77;;;11.75;;
28766;SDS011;15921;52.034;20.650;2023-03-01T11:29:21;28.00;;;12.05;;
28766;SDS011;15921;52.034;20.650;2023-03-01T11:31:55;29.00;;;12.15;;
28766;SDS011;15921;52.034;20.650;2023-03-01T11:34:40;31.23;;;11.23;;
28766;SDS011;15921;52.034;20.650;2023-03-01T11:37:10;19.50;;;9.88;;
28766;SDS011;15921;52.034;20.650;2023-03-01T11:39:50;19.90;;;9.32;;
28766;SDS011;15921;52.034;20.650;2023-03-01T11:45:11;22.83;;;10.10;;
28766;SDS011;15921;52.034;20.650;2023-03-01T11:50:08;22.92;;;10.02;;
28766;SDS011;15921;52.034;20.650;2023-03-01T11:52:49;21.75;;;9.35;;
28766;SDS011;15921;52.034;20.650;2023-03-01T11:55:45;24.20;;;9.57;;
28766;SDS011;15921;52.034;20.650;2023-03-01T12:06:57;22.92;;;9.43;;
28766;SDS011;15921;52.034;20.650;2023-03-01T12:12:29;20.00;;;8.38;;
28766;SDS011;15921;52.034;20.650;2023-03-01T12:15:51;17.48;;;7.38;;
28766;SDS011;15921;52.034;20.650;2023-03-01T12:34:17;16.75;;;8.15;;
28766;SDS011;15921;52.034;20.650;2023-03-01T12:50:54;17.60;;;9.25;;
28766;SDS011;15921;52.034;20.650;2023-03-01T12:53:25;17.40;;;9.10;;
28766;SDS011;15921;52.034;20.650;2023-03-01T12:55:55;19.02;;;10.23;;
28766;SDS011;15921;52.034;20.650;2023-03-01T12:58:29;19.30;;;10.57;;
28766;SDS011;15921;52.034;20.650;2023-03-01T13:06:43;21.35;;;11.20;;
28766;SDS011;15921;52.034;20.650;2023-03-01T13:09:21;26.23;;;11.90;;
28766;SDS011;15921;52.034;20.650;2023-03-01T13:11:56;23.42;;;12.25;;
28766;SDS011;15921;52.034;20.650;2023-03-01T13:16:53;18.95;;;11.40;;
28766;SDS011;15921;52.034;20.650;2023-03-01T13:19:21;19.50;;;11.23;;
28766;SDS011;15921;52.034;20.650;2023-03-01T13:21:49;23.25;;;11.85;;
28766;SDS011;15921;52.034;20.650;2023-03-01T13:24:38;25.98;;;12.45;;
28766;SDS011;15921;52.034;20.650;2023-03-01T13:34:46;26.52;;;12.98;;
28766;SDS011;15921;52.034;20.650;2023-03-01T13:37:20;25.30;;;12.20;;
28766;SDS011;15921;52.034;20.650;2023-03-01T13:39:55;26.90;;;13.60;;
28766;SDS011;15921;52.034;20.650;2023-03-01T13:45:04;27.23;;;13.52;;
28766;SDS011;15921;52.034;20.650;2023-03-01T13:47:39;26.80;;;13.45;;
28766;SDS011;15921;52.034;20.650;2023-03-01T13:50:15;27.95;;;14.00;;
28766;SDS011;15921;52.034;20.650;2023-03-01T13:52:48;30.70;;;15.15;;
28766;SDS011;15921;52.034;20.650;2023-03-01T13:55:23;32.35;;;14.98;;
28766;SDS011;15921;52.034;20.650;2023-03-01T14:03:11;26.05;;;14.07;;
28766;SDS011;15921;52.034;20.650;2023-03-01T14:05:41;28.38;;;13.98;;
28766;SDS011;15921;52.034;20.650;2023-03-01T14:08:28;25.60;;;13.48;;
28766;SDS011;15921;52.034;20.650;2023-03-01T14:21:35;27.80;;;14.13;;
28766;SDS011;15921;52.034;20.650;2023-03-01T14:24:01;26.95;;;14.02;;
28766;SDS011;15921;52.034;20.650;2023-03-01T14:26:28;30.38;;;14.98;;
28766;SDS011;15921;52.034;20.650;2023-03-01T14:28:56;25.48;;;13.43;;
28766;SDS011;15921;52.034;20.650;2023-03-01T14:31:32;30.73;;;14.07;;
28766;SDS011;15921;52.034;20.650;2023-03-01T14:34:01;26.27;;;14.45;;
28766;SDS011;15921;52.034;20.650;2023-03-01T14:36:28;32.55;;;15.52;;
28766;SDS011;15921;52.034;20.650;2023-03-01T14:38:57;24.83;;;13.38;;
28766;SDS011;15921;52.034;20.650;2023-03-01T14:41:31;25.83;;;13.43;;
28766;SDS011;15921;52.034;20.650;2023-03-01T14:44:00;26.58;;;13.68;;
28766;SDS011;15921;52.034;20.650;2023-03-01T14:49:02;29.55;;;13.38;;
28766;SDS011;15921;52.034;20.650;2023-03-01T14:51:41;27.05;;;14.20;;
28766;SDS011;15921;52.034;20.650;2023-03-01T14:54:18;32.03;;;14.20;;
28766;SDS011;15921;52.034;20.650;2023-03-01T14:56:45;26.52;;;13.27;;
28766;SDS011;15921;52.034;20.650;2023-03-01T14:59:12;28.10;;;14.07;;
28766;SDS011;15921;52.034;20.650;2023-03-01T15:01:39;28.02;;;14.02;;
28766;SDS011;15921;52.034;20.650;2023-03-01T15:04:06;26.98;;;13.48;;
28766;SDS011;15921;52.034;20.650;2023-03-01T15:06:37;28.48;;;13.77;;
28766;SDS011;15921;52.034;20.650;2023-03-01T15:09:03;28.98;;;13.50;;
28766;SDS011;15921;52.034;20.650;2023-03-01T15:11:30;23.10;;;13.15;;
28766;SDS011;15921;52.034;20.650;2023-03-01T15:13:58;24.42;;;13.07;;
28766;SDS011;15921;52.034;20.650;2023-03-01T15:18:53;28.55;;;13.15;;
28766;SDS011;15921;52.034;20.650;2023-03-01T15:21:32;31.80;;;14.10;;
28766;SDS011;15921;52.034;20.650;2023-03-01T15:26:44;28.52;;;12.80;;
28766;SDS011;15921;52.034;20.650;2023-03-01T15:29:20;31.50;;;14.00;;
28766;SDS011;15921;52.034;20.650;2023-03-01T15:31:58;32.22;;;14.50;;
28766;SDS011;15921;52.034;20.650;2023-03-01T15:34:28;38.53;;;19.17;;
28766;SDS011;15921;52.034;20.650;2023-03-01T15:36:58;34.53;;;15.05;;
28766;SDS011;15921;52.034;20.650;2023-03-01T15:39:41;27.10;;;13.05;;
28766;SDS011;15921;52.034;20.650;2023-03-01T15:42:12;31.30;;;12.77;;
28766;SDS011;15921;52.034;20.650;2023-03-01T15:47:54;32.15;;;14.10;;
28766;SDS011;15921;52.034;20.650;2023-03-01T15:50:29;35.45;;;14.40;;
28766;SDS011;15921;52.034;20.650;2023-03-01T15:53:01;31.45;;;14.07;;
28766;SDS011;15921;52.034;20.650;2023-03-01T15:55:32;32.42;;;14.57;;
28766;SDS011;15921;52.034;20.650;2023-03-01T15:58:20;28.75;;;14.55;;
28766;SDS011;15921;52.034;20.650;2023-03-01T16:00:48;35.92;;;15.13;;
28766;SDS011;15921;52.034;20.650;2023-03-01T16:03:20;38.00;;;15.50;;
28766;SDS011;15921;52.034;20.650;2023-03-01T16:05:48;31.75;;;14.52;;
28766;SDS011;15921;52.034;20.650;2023-03-01T16:08:15;33.05;;;15.05;;
28766;SDS011;15921;52.034;20.650;2023-03-01T16:10:41;30.70;;;14.65;;
28766;SDS011;15921;52.034;20.650;2023-03-01T16:13:10;39.30;;;17.83;;
28766;SDS011;15921;52.034;20.650;2023-03-01T16:15:36;37.83;;;16.70;;
28766;SDS011;15921;52.034;20.650;2023-03-01T16:18:02;44.78;;;18.60;;
28766;SDS011;15921;52.034;20.650;2023-03-01T16:20:30;39.97;;;17.73;;
28766;SDS011;15921;52.034;20.650;2023-03-01T16:23:00;45.70;;;20.10;;
28766;SDS011;15921;52.034;20.650;2023-03-01T16:25:27;41.75;;;17.83;;
28766;SDS011;15921;52.034;20.650;2023-03-01T16:27:53;39.53;;;17.00;;
28766;SDS011;15921;52.034;20.650;2023-03-01T16:30:20;43.38;;;17.10;;
28766;SDS011;15921;52.034;20.650;2023-03-01T16:32:47;51.25;;;22.13;;